KSEM

Craig Field Airport

Selma, Alabama, USA
METAR KSEM 201235Z AUTO 00000KT 10SM FEW050 03/M03 A3029 RMK AO2
Observed Flight Rules
Jan-20 @ 12:35 UTC (34 minutes ago) Visual Flight Rules
Wind Visibility Clouds
Calm 10 miles
  • Few at 5,000' AGL
Temperatures Readings
Current 3°C / 37°F
Dewpoint -3°C / 27°F
Humidity 65%
Altimeter 30.29" Hg
Pressure 1026 hPa
Elevation 51
METAR KSEM 201235Z AUTO 00000KT 10SM FEW050 03/M03 A3029 RMK AO2
Observed Flight Rules
Jan-20 @ 12:35 UTC
(34 minutes ago)
VFR
Wind Visibility
Calm 10 miles
Clouds
  • Few at 5,000' AGL
Temperature Dewpoint
3°C / 37°F -3°C / 27°F
Humidity Altimeter Pressure
65% 30.29" Hg 1026 hPa